Time;durP1;ratioP1;P1;durP2;ratioP2;P2;SDS_P1;SDS_P2;PMS_P1;PMS_P2;Temp;Humidity;BMP_temperature;BMP_pressure;BME280_temperature;BME280_humidity;BME280_pressure;Samples;Min_cycle;Max_cycle;Signal;HPM_P1;HPM_P2
2022/09/13 00:01:41;;;;;;;20.63;18.15;;;17.90;99.90;;;;;;5006719;28;20073;-74
2022/09/13 00:04:07;;;;;;;23.38;19.00;;;17.30;99.90;;;;;;4991619;28;20041;-74
2022/09/13 00:06:33;;;;;;;26.27;19.17;;;17.30;99.90;;;;;;4988850;28;20077;-74
2022/09/13 00:09:00;;;;;;;27.05;19.48;;;17.50;99.90;;;;;;4991395;28;20398;-74
2022/09/13 00:11:27;;;;;;;22.95;20.02;;;17.30;99.90;;;;;;4986508;28;20097;-74
2022/09/13 00:13:55;;;;;;;21.70;19.27;;;17.80;99.90;;;;;;5007771;28;20133;-74
2022/09/13 00:16:23;;;;;;;25.45;19.10;;;17.30;99.90;;;;;;5003513;28;20030;-75
2022/09/13 00:18:50;;;;;;;24.85;21.52;;;17.30;99.90;;;;;;5006787;28;20046;-74
2022/09/13 00:21:18;;;;;;;25.15;18.20;;;17.50;99.90;;;;;;4975222;28;20042;-73
2022/09/13 00:23:45;;;;;;;24.08;20.88;;;17.30;99.90;;;;;;4986863;28;20053;-74
2022/09/13 00:26:14;;;;;;;27.38;22.00;;;17.30;99.90;;;;;;5008196;28;20045;-74
2022/09/13 00:28:41;;;;;;;24.77;21.45;;;17.30;99.90;;;;;;4987349;28;20156;-74
2022/09/13 00:31:08;;;;;;;26.15;20.92;;;17.30;99.90;;;;;;5006704;28;20077;-73
2022/09/13 00:33:34;;;;;;;28.40;23.10;;;17.30;99.90;;;;;;4987159;28;20053;-73
2022/09/13 00:36:08;;;;;;;29.38;24.10;;;17.30;99.90;;;;;;5006492;28;20156;-74
2022/09/13 00:38:35;;;;;;;;;;;17.30;99.90;;;;;;4991443;28;20552;-73
2022/09/13 00:41:02;;;;;;;29.02;22.98;;;17.30;99.90;;;;;;5005650;28;19941;-74
2022/09/13 00:43:43;;;;;;;31.30;24.92;;;18.20;99.90;;;;;;5008098;28;20576;-74
2022/09/13 00:46:13;;;;;;;26.77;21.48;;;17.30;99.90;;;;;;4982752;28;20061;-74
2022/09/13 00:48:39;;;;;;;26.73;23.80;;;17.20;99.90;;;;;;4991406;28;20501;-74
2022/09/13 00:51:07;;;;;;;37.63;25.52;;;17.30;99.90;;;;;;5004802;28;20049;-74
2022/09/13 00:53:36;;;;;;;26.65;22.48;;;17.40;99.90;;;;;;5008764;28;20433;-74
2022/09/13 00:56:08;;;;;;;27.88;21.58;;;17.50;99.90;;;;;;5003151;28;20081;-74
2022/09/13 00:58:57;;;;;;;24.13;21.23;;;17.30;99.90;;;;;;5008615;28;20034;-74
2022/09/13 01:01:32;;;;;;;22.48;19.02;;;17.30;99.90;;;;;;4986248;28;20468;-73
2022/09/13 01:03:59;;;;;;;22.92;17.67;;;18.40;99.90;;;;;;5006939;28;20045;-73
2022/09/13 01:06:31;;;;;;;20.55;17.75;;;17.20;99.90;;;;;;5001795;28;20078;-73
2022/09/13 01:09:02;;;;;;;18.55;16.50;;;17.20;99.90;;;;;;4990649;28;20508;-73
2022/09/13 01:12:02;;;;;;;23.08;17.38;;;17.30;99.90;;;;;;4986921;28;20617;-74
2022/09/13 01:14:29;;;;;;;20.15;15.88;;;17.20;99.90;;;;;;4968655;28;20053;-73
2022/09/13 01:16:55;;;;;;;16.45;14.50;;;17.30;99.90;;;;;;4986330;28;20061;-73
2022/09/13 01:19:23;;;;;;;21.90;16.10;;;17.40;99.90;;;;;;4957441;28;20058;-74
2022/09/13 01:22:01;;;;;;;17.25;15.35;;;17.30;99.90;;;;;;5001928;28;20118;-74
2022/09/13 01:24:44;;;;;;;19.90;16.08;;;17.30;99.90;;;;;;5005657;28;20121;-74
2022/09/13 01:27:29;;;;;;;18.95;16.25;;;17.30;99.90;;;;;;5007088;28;20121;-74
2022/09/13 01:30:11;;;;;;;16.50;13.95;;;17.50;99.90;;;;;;4985886;28;20137;-74
2022/09/13 01:32:53;;;;;;;16.85;14.07;;;17.20;99.90;;;;;;4986540;28;20041;-74
2022/09/13 01:35:42;;;;;;;16.13;14.48;;;17.20;99.90;;;;;;5000435;28;20042;-73
2022/09/13 01:38:26;;;;;;;15.63;13.95;;;17.20;99.90;;;;;;5005220;28;20522;-73
2022/09/13 01:41:21;;;;;;;18.40;14.25;;;17.20;99.90;;;;;;5000523;28;20037;-73
2022/09/13 01:44:10;;;;;;;19.52;15.32;;;17.20;99.90;;;;;;5006345;28;20052;-74
2022/09/13 01:46:54;;;;;;;13.70;11.85;;;17.50;99.90;;;;;;4935630;28;20124;-74
2022/09/13 01:49:42;;;;;;;16.25;13.60;;;17.20;99.90;;;;;;5000887;28;20037;-73
2022/09/13 01:52:26;;;;;;;17.85;13.20;;;17.20;99.90;;;;;;5007693;28;20069;-74
2022/09/13 01:55:04;;;;;;;18.05;13.80;;;17.20;99.90;;;;;;4986400;28;20038;-74
2022/09/13 01:57:39;;;;;;;16.48;12.85;;;17.20;99.90;;;;;;4989534;28;20056;-74
2022/09/13 02:00:16;;;;;;;17.55;13.15;;;17.20;99.90;;;;;;5003245;28;20050;-74
2022/09/13 02:02:56;;;;;;;16.65;13.80;;;17.10;99.90;;;;;;4971474;28;20045;-73
2022/09/13 02:05:27;;;;;;;15.05;12.02;;;17.10;99.90;;;;;;4983362;28;20401;-74
2022/09/13 02:07:59;;;;;;;14.02;12.57;;;17.10;99.90;;;;;;4989670;28;20057;-73
2022/09/13 02:10:37;;;;;;;17.08;13.27;;;17.10;99.90;;;;;;5007466;28;20526;-73
2022/09/13 02:13:08;;;;;;;13.23;11.23;;;17.10;99.90;;;;;;4985689;28;20133;-73
2022/09/13 02:15:44;;;;;;;12.82;11.55;;;17.10;99.90;;;;;;4990563;28;20450;-73
2022/09/13 02:18:33;;;;;;;13.73;12.25;;;17.30;99.90;;;;;;4983894;28;20069;-73
2022/09/13 02:21:10;;;;;;;16.30;12.85;;;17.10;99.90;;;;;;4972275;28;20053;-73
2022/09/13 02:23:50;;;;;;;14.68;12.10;;;17.10;99.90;;;;;;5001624;28;20076;-74
2022/09/13 02:26:18;;;;;;;16.38;12.95;;;17.20;99.90;;;;;;4982150;28;20030;-74
2022/09/13 02:28:50;;;;;;;13.35;11.45;;;17.20;99.90;;;;;;4987012;28;20386;-74
2022/09/13 02:31:21;;;;;;;12.95;11.60;;;17.80;99.90;;;;;;4965561;28;20073;-73
2022/09/13 02:34:24;;;;;;;17.73;13.43;;;17.10;99.90;;;;;;5003611;28;20339;-74
2022/09/13 02:36:55;;;;;;;14.45;12.20;;;17.10;99.90;;;;;;4970611;28;20709;-74
2022/09/13 02:39:26;;;;;;;15.02;12.57;;;17.10;99.90;;;;;;5002618;28;20034;-74
2022/09/13 02:42:11;;;;;;;18.42;13.32;;;17.10;99.90;;;;;;4987418;28;20093;-73
2022/09/13 02:44:41;;;;;;;14.30;12.75;;;17.10;99.90;;;;;;5001677;28;20501;-74
2022/09/13 02:47:29;;;;;;;18.02;14.27;;;17.10;99.90;;;;;;4987981;28;20057;-73
2022/09/13 02:50:08;;;;;;;18.00;12.90;;;17.10;99.90;;;;;;5006220;28;20050;-73
2022/09/13 02:52:47;;;;;;;17.73;13.82;;;17.10;99.90;;;;;;5005344;28;20062;-73
2022/09/13 02:55:52;;;;;;;16.38;13.57;;;17.00;99.90;;;;;;4990774;28;20076;-73
2022/09/13 02:58:29;;;;;;;17.83;13.40;;;17.20;99.90;;;;;;4929313;28;20050;-74
2022/09/13 03:00:55;;;;;;;17.50;14.20;;;17.20;99.90;;;;;;4973390;28;20417;-73
2022/09/13 03:03:21;;;;;;;15.65;13.35;;;18.20;99.90;;;;;;4993302;28;20045;-74
2022/09/13 03:05:46;;;;;;;17.25;14.55;;;17.60;99.90;;;;;;4988393;28;20096;-74
2022/09/13 03:08:15;;;;;;;15.27;13.43;;;17.20;99.90;;;;;;5009110;28;20065;-73
2022/09/13 03:11:09;;;;;;;16.58;13.88;;;17.20;99.90;;;;;;4985579;28;20045;-73
2022/09/13 03:14:00;;;;;;;16.40;13.75;;;17.20;99.90;;;;;;4992735;28;20413;-73
2022/09/13 03:17:03;;;;;;;15.90;11.88;;;17.20;99.90;;;;;;5002500;28;20125;-73
2022/09/13 03:19:52;;;;;;;14.70;12.25;;;17.30;99.90;;;;;;4986512;28;20049;-73
2022/09/13 03:22:32;;;;;;;11.00;9.90;;;17.30;99.90;;;;;;5006373;28;20038;-74
2022/09/13 03:25:25;;;;;;;8.30;7.50;;;17.30;99.90;;;;;;4992245;28;20038;-74
2022/09/13 03:28:32;;;;;;;5.93;4.80;;;17.30;99.90;;;;;;5005321;28;20429;-74
2022/09/13 03:31:07;;;;;;;3.17;2.88;;;17.30;99.90;;;;;;4961708;28;20054;-74
2022/09/13 03:33:48;;;;;;;5.18;2.58;;;17.30;99.90;;;;;;5006950;28;20418;-73
2022/09/13 03:36:23;;;;;;;3.40;2.78;;;17.30;99.90;;;;;;5009616;28;20050;-74
2022/09/13 03:39:08;;;;;;;2.05;1.58;;;17.30;99.90;;;;;;5006060;28;20044;-73
2022/09/13 03:41:38;;;;;;;4.00;2.08;;;17.20;99.90;;;;;;5004938;28;20054;-74
2022/09/13 03:44:09;;;;;;;2.85;1.85;;;17.60;99.90;;;;;;5006081;28;20034;-73
2022/09/13 03:46:42;;;;;;;4.35;1.85;;;17.20;99.90;;;;;;4989711;28;20053;-73
2022/09/13 03:49:12;;;;;;;1.50;1.40;;;17.20;99.90;;;;;;4973034;28;20042;-73
2022/09/13 03:51:39;;;;;;;1.50;1.38;;;17.20;99.90;;;;;;5010713;28;20061;-74
2022/09/13 03:54:16;;;;;;;3.40;1.55;;;17.20;99.90;;;;;;4986583;28;20563;-74
2022/09/13 03:56:42;;;;;;;3.05;1.20;;;17.20;99.90;;;;;;4986943;28;20462;-74
2022/09/13 03:59:08;;;;;;;3.35;1.48;;;17.20;99.90;;;;;;4984975;28;20159;-74
2022/09/13 04:01:33;;;;;;;4.05;1.00;;;17.20;99.90;;;;;;4974851;28;20046;-74
2022/09/13 04:03:59;;;;;;;3.33;1.30;;;17.20;99.90;;;;;;5009923;28;20060;-74
2022/09/13 04:06:25;;;;;;;2.80;1.35;;;17.20;99.90;;;;;;4973044;28;20129;-73
2022/09/13 04:08:50;;;;;;;3.38;1.15;;;17.20;99.90;;;;;;4992238;28;20054;-74
2022/09/13 04:11:16;;;;;;;1.92;1.17;;;17.50;99.90;;;;;;5003082;28;20051;-74
2022/09/13 04:13:42;;;;;;;4.30;1.45;;;17.20;99.90;;;;;;5009445;28;20054;-73
2022/09/13 04:16:08;;;;;;;3.08;1.42;;;17.40;99.90;;;;;;5002964;28;20073;-74
2022/09/13 04:18:34;;;;;;;4.57;0.95;;;17.20;99.90;;;;;;4975172;28;20129;-74
2022/09/13 04:21:01;;;;;;;1.63;1.38;;;17.20;99.90;;;;;;4975382;28;20072;-74
2022/09/13 04:23:29;;;;;;;2.25;1.30;;;17.20;99.90;;;;;;5005504;28;20372;-73
2022/09/13 04:26:00;;;;;;;1.27;1.13;;;17.20;99.90;;;;;;4976100;28;20042;-74
2022/09/13 04:28:26;;;;;;;3.53;1.40;;;17.30;99.90;;;;;;4985652;28;20057;-74
2022/09/13 04:30:52;;;;;;;5.68;1.42;;;17.90;99.90;;;;;;4991772;28;20052;-74
2022/09/13 04:33:17;;;;;;;2.22;1.40;;;17.30;99.90;;;;;;4987047;28;20034;-74
2022/09/13 04:35:43;;;;;;;1.60;1.05;;;17.30;99.90;;;;;;4990920;28;20041;-74
2022/09/13 04:38:08;;;;;;;3.33;1.25;;;17.50;99.90;;;;;;4974650;28;20108;-73
2022/09/13 04:40:35;;;;;;;3.05;1.30;;;17.30;99.90;;;;;;4988861;28;20045;-74
2022/09/13 04:43:01;;;;;;;0.95;0.73;;;17.20;99.90;;;;;;4991120;28;20049;-74
2022/09/13 04:45:27;;;;;;;4.38;0.80;;;17.20;99.90;;;;;;5003665;28;20033;-74
2022/09/13 04:47:55;;;;;;;4.13;0.90;;;17.20;99.90;;;;;;4988608;28;20541;-74
2022/09/13 04:50:21;;;;;;;1.85;1.15;;;17.20;99.90;;;;;;4990240;28;20053;-74
2022/09/13 04:52:47;;;;;;;3.13;0.90;;;17.20;99.90;;;;;;4987581;28;20450;-74
2022/09/13 04:55:13;;;;;;;3.42;1.17;;;17.20;99.90;;;;;;4990159;28;20133;-74
2022/09/13 04:57:39;;;;;;;6.07;1.17;;;17.20;99.90;;;;;;5003854;28;20042;-73
2022/09/13 05:00:06;;;;;;;4.90;1.30;;;17.10;99.90;;;;;;4989607;28;20040;-73
2022/09/13 05:02:31;;;;;;;2.28;1.15;;;17.10;99.90;;;;;;4991671;28;20483;-74
2022/09/13 05:04:57;;;;;;;6.32;1.00;;;17.10;99.90;;;;;;5005210;28;20042;-74
2022/09/13 05:07:22;;;;;;;3.88;1.23;;;17.10;99.90;;;;;;4990667;28;20060;-74
2022/09/13 05:09:48;;;;;;;6.50;1.10;;;17.10;99.90;;;;;;5004751;28;20406;-73
2022/09/13 05:12:14;;;;;;;3.92;0.85;;;17.00;99.90;;;;;;5006573;28;20421;-74
2022/09/13 05:14:39;;;;;;;2.70;1.05;;;17.00;99.90;;;;;;5003950;28;20069;-73
2022/09/13 05:17:05;;;;;;;4.47;0.88;;;17.00;99.90;;;;;;4988645;28;20365;-74
2022/09/13 05:19:31;;;;;;;4.82;1.17;;;17.00;99.90;;;;;;4988164;28;20054;-73
2022/09/13 05:21:57;;;;;;;5.53;2.33;;;17.00;99.90;;;;;;4986953;28;20489;-74
2022/09/13 05:24:22;;;;;;;4.40;1.95;;;17.00;99.90;;;;;;4989891;28;20513;-74
2022/09/13 05:26:48;;;;;;;3.75;0.95;;;17.00;99.90;;;;;;4974847;28;20184;-74
2022/09/13 05:29:13;;;;;;;4.28;1.20;;;17.00;99.90;;;;;;4990122;28;20100;-73
2022/09/13 05:31:41;;;;;;;3.20;0.75;;;17.00;99.90;;;;;;5003144;28;20050;-73
2022/09/13 05:34:14;;;;;;;3.97;0.85;;;17.30;99.90;;;;;;4973207;28;20052;-73
2022/09/13 05:36:40;;;;;;;5.75;0.75;;;17.00;99.90;;;;;;5004125;28;20133;-73
2022/09/13 05:39:10;;;;;;;2.97;0.75;;;17.00;99.90;;;;;;5004698;28;20046;-73
2022/09/13 05:41:36;;;;;;;2.58;0.63;;;17.00;99.90;;;;;;5008376;28;20038;-73
2022/09/13 05:44:02;;;;;;;2.20;0.70;;;17.00;99.90;;;;;;4987114;28;20041;-73
2022/09/13 05:46:27;;;;;;;4.03;2.58;;;17.00;99.90;;;;;;5006156;28;20034;-73
2022/09/13 05:48:57;;;;;;;16.05;11.98;;;17.10;99.90;;;;;;4988089;28;20053;-73
2022/09/13 05:51:23;;;;;;;2.63;1.55;;;17.00;99.90;;;;;;5008281;28;20041;-73
2022/09/13 05:53:51;;;;;;;5.05;1.13;;;17.00;99.90;;;;;;5004459;28;20046;-73
2022/09/13 05:56:22;;;;;;;3.20;0.75;;;17.00;99.90;;;;;;5007434;28;20540;-73
2022/09/13 05:58:49;;;;;;;4.10;1.00;;;17.00;99.90;;;;;;5004139;28;20096;-73
2022/09/13 06:01:20;;;;;;;4.00;1.17;;;16.90;99.90;;;;;;5005784;28;20049;-73
2022/09/13 06:03:48;;;;;;;5.32;1.25;;;16.90;99.90;;;;;;5003663;28;20128;-73
2022/09/13 06:06:14;;;;;;;5.30;0.95;;;17.00;99.90;;;;;;5004924;28;20125;-73
2022/09/13 06:08:40;;;;;;;5.15;1.40;;;16.90;99.90;;;;;;5008391;28;20141;-73
2022/09/13 06:11:07;;;;;;;7.68;0.95;;;16.90;99.90;;;;;;4987138;28;20401;-73
2022/09/13 06:13:33;;;;;;;5.47;0.95;;;16.90;99.90;;;;;;4989559;28;20093;-73
2022/09/13 06:16:01;;;;;;;4.28;0.82;;;16.90;99.90;;;;;;4970134;28;20081;-73
2022/09/13 06:18:27;;;;;;;4.40;0.93;;;17.00;99.90;;;;;;5006484;28;21488;-73
2022/09/13 06:21:01;;;;;;;2.97;0.68;;;17.00;99.90;;;;;;4986170;28;20129;-73
2022/09/13 06:23:28;;;;;;;7.38;1.33;;;17.00;99.90;;;;;;5009807;28;20045;-74
2022/09/13 06:26:10;;;;;;;4.32;1.00;;;17.10;99.90;;;;;;4314455;28;10000790;-74
2022/09/13 06:28:37;;;;;;;3.75;1.10;;;17.00;99.90;;;;;;4988971;28;20046;-74
2022/09/13 06:31:11;;;;;;;5.60;0.85;;;17.00;99.90;;;;;;5010294;28;20499;-74
2022/09/13 06:33:39;;;;;;;4.30;1.15;;;17.10;99.90;;;;;;5009662;28;20527;-74
2022/09/13 06:36:13;;;;;;;6.90;0.93;;;17.10;99.90;;;;;;4971352;28;20064;-74
2022/09/13 06:38:40;;;;;;;4.13;0.93;;;17.10;99.90;;;;;;5006903;28;20069;-74
2022/09/13 06:41:08;;;;;;;7.10;1.23;;;17.10;99.90;;;;;;5004794;28;20042;-74
2022/09/13 06:43:34;;;;;;;2.67;0.82;;;17.10;99.90;;;;;;5006249;28;20057;-74
2022/09/13 06:46:06;;;;;;;7.85;1.27;;;17.20;99.90;;;;;;5005598;28;20038;-75
2022/09/13 06:48:34;;;;;;;10.93;4.95;;;17.20;99.90;;;;;;4993102;28;20053;-75
2022/09/13 06:51:00;;;;;;;8.05;4.55;;;17.50;99.90;;;;;;4977008;28;20045;-75
2022/09/13 06:53:29;;;;;;;4.97;1.20;;;18.00;99.90;;;;;;5009720;28;20397;-75
2022/09/13 06:56:13;;;;;;;5.20;1.20;;;17.20;99.90;;;;;;4994398;28;20390;-75
2022/09/13 06:58:40;;;;;;;10.65;1.63;;;17.20;99.90;;;;;;4988522;28;20468;-74
2022/09/13 07:01:21;;;;;;;6.78;0.90;;;17.20;99.90;;;;;;4995575;28;20048;-74
2022/09/13 07:04:05;;;;;;;6.25;1.52;;;17.20;99.90;;;;;;5006132;28;20175;-74
2022/09/13 07:06:33;;;;;;;4.97;1.00;;;17.20;99.90;;;;;;4984240;28;20053;-75
2022/09/13 07:09:02;;;;;;;5.22;1.17;;;17.50;99.90;;;;;;5013672;28;20046;-74
2022/09/13 07:11:31;;;;;;;4.03;1.27;;;17.30;99.90;;;;;;4994700;28;20049;-74
2022/09/13 07:13:57;;;;;;;6.28;0.98;;;17.30;99.90;;;;;;5013491;28;20140;-74
2022/09/13 07:16:29;;;;;;;2.65;0.80;;;17.40;99.90;;;;;;4991470;28;20053;-75
2022/09/13 07:18:57;;;;;;;4.38;0.73;;;17.30;99.90;;;;;;4995351;28;20074;-74
2022/09/13 07:21:24;;;;;;;7.10;1.17;;;17.30;99.90;;;;;;5007888;28;20050;-74
2022/09/13 07:23:52;;;;;;;5.07;2.45;;;17.30;99.90;;;;;;5012527;28;20048;-74
2022/09/13 07:26:17;;;;;;;4.30;0.80;;;17.30;99.90;;;;;;4994892;28;20042;-75
2022/09/13 07:28:46;;;;;;;11.23;1.15;;;17.20;99.90;;;;;;4993470;28;20409;-74
2022/09/13 07:31:27;;;;;;;6.72;1.42;;;17.30;99.90;;;;;;4994428;28;20065;-74
2022/09/13 07:33:56;;;;;;;5.05;0.70;;;17.30;99.90;;;;;;4994658;28;20121;-74
2022/09/13 07:36:23;;;;;;;5.22;0.95;;;17.30;99.90;;;;;;5011748;28;20573;-76
2022/09/13 07:38:49;;;;;;;2.75;0.80;;;17.30;99.90;;;;;;4975339;28;20125;-76
2022/09/13 07:41:17;;;;;;;7.72;0.80;;;17.20;99.90;;;;;;4978876;28;20041;-77
2022/09/13 07:43:43;;;;;;;6.18;0.60;;;17.30;99.90;;;;;;4985603;28;20045;-77
2022/09/13 07:46:15;;;;;;;6.68;0.55;;;17.30;99.90;;;;;;4994064;28;20046;-79
2022/09/13 07:48:43;;;;;;;4.00;0.52;;;17.20;99.90;;;;;;4993750;28;20038;-78
2022/09/13 07:51:14;;;;;;;4.95;0.50;;;17.30;99.90;;;;;;4974173;28;22484;-79
2022/09/13 07:53:41;;;;;;;6.40;0.57;;;17.30;99.90;;;;;;4975334;28;20493;-78
2022/09/13 07:56:10;;;;;;;9.20;3.65;;;18.20;99.90;;;;;;4991664;28;20149;-79
2022/09/13 07:58:37;;;;;;;4.43;0.47;;;17.30;99.90;;;;;;4991745;28;20069;-79
2022/09/13 08:01:24;;;;;;;6.53;0.68;;;18.10;99.90;;;;;;4991808;28;20038;-77
2022/09/13 08:03:54;;;;;;;3.90;0.50;;;18.10;99.90;;;;;;4988056;28;20053;-79
2022/09/13 08:06:21;;;;;;;3.75;0.43;;;17.30;99.90;;;;;;4977613;28;20042;-79
2022/09/13 08:08:47;;;;;;;4.38;0.30;;;17.30;99.90;;;;;;4977010;28;20405;-78
2022/09/13 08:11:21;;;;;;;3.25;0.30;;;17.30;99.90;;;;;;5007272;28;20539;-74
2022/09/13 08:13:47;;;;;;;1.98;0.30;;;17.30;99.90;;;;;;4985537;28;20620;-73
2022/09/13 08:16:15;;;;;;;3.75;0.20;;;17.30;99.90;;;;;;5007097;28;20038;-74
2022/09/13 08:18:46;;;;;;;4.63;0.63;;;17.30;99.90;;;;;;4991933;28;20093;-79
2022/09/13 08:21:12;;;;;;;6.53;0.70;;;17.50;99.90;;;;;;5011067;28;20453;-79
2022/09/13 08:23:38;;;;;;;11.00;0.55;;;17.80;99.90;;;;;;5008833;28;20559;-78
2022/09/13 08:26:05;;;;;;;4.93;0.45;;;17.40;99.90;;;;;;5011558;28;20050;-79
2022/09/13 08:28:31;;;;;;;7.30;0.47;;;17.40;99.90;;;;;;4990190;28;20048;-79
2022/09/13 08:31:02;;;;;;;5.00;0.50;;;17.50;99.90;;;;;;5010445;28;20034;-79
2022/09/13 08:33:28;;;;;;;7.10;0.85;;;17.40;99.90;;;;;;4989504;28;20042;-79
2022/09/13 08:35:54;;;;;;;7.15;0.60;;;17.40;99.90;;;;;;4975732;28;20042;-79
2022/09/13 08:38:20;;;;;;;6.65;0.65;;;17.40;99.90;;;;;;4988934;28;20046;-79
2022/09/13 08:40:54;;;;;;;5.28;0.63;;;17.40;99.90;;;;;;4991095;28;20089;-79
2022/09/13 08:43:38;;;;;;;10.85;1.15;;;17.40;99.90;;;;;;5010457;28;20041;-79
2022/09/13 08:46:11;;;;;;;5.03;0.70;;;17.40;99.90;;;;;;4988472;28;20494;-79
2022/09/13 08:48:43;;;;;;;5.78;0.40;;;17.40;99.90;;;;;;4993385;28;20041;-79
2022/09/13 08:51:42;;;;;;;8.50;0.95;;;17.50;99.90;;;;;;4990198;28;20505;-79
2022/09/13 08:54:13;;;;;;;10.15;0.55;;;17.50;99.90;;;;;;5006038;28;20093;-79
2022/09/13 08:57:10;;;;;;;7.05;0.70;;;17.60;99.90;;;;;;4987656;28;20100;-79
2022/09/13 09:00:11;;;;;;;8.80;0.80;;;17.60;99.90;;;;;;5009870;28;20173;-79
2022/09/13 09:02:40;;;;;;;7.07;0.68;;;17.60;99.90;;;;;;4983140;28;20050;-79
2022/09/13 09:05:17;;;;;;;3.33;0.73;;;17.60;99.90;;;;;;5010948;28;20081;-79
2022/09/13 09:07:47;;;;;;;5.60;0.30;;;17.70;99.90;;;;;;4991409;28;20469;-79
2022/09/13 09:10:18;;;;;;;9.73;0.60;;;17.60;99.90;;;;;;5009740;28;20038;-78
2022/09/13 09:12:46;;;;;;;3.92;0.85;;;17.60;99.90;;;;;;4974742;28;20061;-78
2022/09/13 09:15:24;;;;;;;11.18;3.88;;;17.60;99.90;;;;;;4975546;28;20128;-79
2022/09/13 09:18:20;;;;;;;8.15;0.90;;;17.60;99.90;;;;;;4989832;28;20042;-79
2022/09/13 09:20:52;;;;;;;7.60;1.25;;;17.60;99.90;;;;;;4972874;28;20057;-79
2022/09/13 09:23:33;;;;;;;9.50;0.73;;;17.70;99.90;;;;;;4971136;28;20039;-78
2022/09/13 09:26:20;;;;;;;8.43;1.10;;;17.70;99.90;;;;;;4967311;28;20270;-78
2022/09/13 09:29:20;;;;;;;2.95;0.30;;;17.80;99.90;;;;;;4996932;28;20037;-78
2022/09/13 09:32:22;;;;;;;6.70;0.75;;;17.90;99.90;;;;;;5002940;28;20077;-79
2022/09/13 09:35:08;;;;;;;5.20;0.50;;;18.00;99.90;;;;;;5005640;28;20038;-79
2022/09/13 09:37:36;;;;;;;2.40;0.50;;;18.00;99.90;;;;;;4989520;28;20587;-76
2022/09/13 09:40:08;;;;;;;2.78;0.38;;;17.90;99.90;;;;;;4971354;28;20092;-85
2022/09/13 09:42:44;;;;;;;3.85;0.50;;;18.00;99.90;;;;;;4990895;28;20732;-84
2022/09/13 09:45:26;;;;;;;2.90;0.40;;;18.00;99.90;;;;;;4970793;28;20034;-88
2022/09/13 09:47:54;;;;;;;6.93;0.65;;;18.10;99.90;;;;;;5008237;28;20046;-86
2022/09/13 09:50:22;;;;;;;4.38;0.90;;;18.10;99.90;;;;;;4986023;28;20041;-84
2022/09/13 09:53:03;;;;;;;8.73;0.77;;;18.20;99.90;;;;;;4987616;28;20048;-85
2022/09/13 09:55:42;;;;;;;3.65;0.40;;;18.30;99.90;;;;;;4969270;28;20084;-78
2022/09/13 09:58:11;;;;;;;4.50;0.50;;;18.20;99.90;;;;;;5006162;28;20121;-82
2022/09/13 10:00:52;;;;;;;7.15;0.55;;;18.20;99.90;;;;;;4973952;28;20386;-86
2022/09/13 10:03:22;;;;;;;4.47;0.70;;;18.20;99.90;;;;;;4973208;28;20037;-80
2022/09/13 10:05:48;;;;;;;6.22;0.60;;;18.20;99.90;;;;;;4971590;28;20045;-82
2022/09/13 10:08:27;;;;;;;2.90;0.30;;;18.70;99.90;;;;;;4971865;28;20034;-82
2022/09/13 10:10:56;;;;;;;9.95;1.58;;;19.50;99.90;;;;;;4971453;28;20062;-80
2022/09/13 10:13:23;;;;;;;5.18;0.60;;;18.40;99.90;;;;;;4987626;28;20409;-81
2022/09/13 10:16:01;;;;;;;5.78;0.95;;;18.40;99.90;;;;;;4973917;28;20057;-81
2022/09/13 10:18:32;;;;;;;6.03;1.08;;;18.50;99.90;;;;;;5004960;28;20131;-80
2022/09/13 10:21:19;;;;;;;9.65;0.75;;;18.50;99.90;;;;;;4988821;28;20077;-80
2022/09/13 10:23:49;;;;;;;8.60;1.00;;;18.50;99.90;;;;;;4969968;28;20060;-81
2022/09/13 10:26:21;;;;;;;8.02;0.57;;;18.70;99.90;;;;;;4972545;28;20049;-82
2022/09/13 10:29:07;;;;;;;9.73;1.48;;;18.40;99.90;;;;;;4989900;28;20117;-81
2022/09/13 10:31:52;;;;;;;5.68;0.77;;;18.50;99.90;;;;;;4974577;28;20431;-82
2022/09/13 10:34:36;;;;;;;5.22;1.08;;;18.60;99.90;;;;;;5001664;28;20141;-81
2022/09/13 10:37:03;;;;;;;8.00;0.60;;;18.60;99.90;;;;;;4970379;28;20049;-82
2022/09/13 10:39:33;;;;;;;4.28;0.70;;;18.70;99.90;;;;;;4990406;28;20046;-80
2022/09/13 10:42:03;;;;;;;3.28;0.40;;;18.70;99.90;;;;;;5001434;28;20061;-81
2022/09/13 10:45:16;;;;;;;6.72;0.60;;;18.70;99.90;;;;;;5007792;28;20084;-78
2022/09/13 10:47:53;;;;;;;3.05;0.40;;;18.80;99.90;;;;;;4926890;29;20366;-77
2022/09/13 10:50:27;;;;;;;5.53;0.52;;;18.90;99.90;;;;;;4924216;29;20079;-78
2022/09/13 10:52:55;;;;;;;11.23;1.20;;;18.90;99.90;;;;;;4965202;28;20054;-76
2022/09/13 10:55:27;;;;;;;3.78;0.85;;;19.00;99.90;;;;;;5003026;28;20041;-74
2022/09/13 10:58:01;;;;;;;9.18;0.82;;;19.10;99.90;;;;;;5005935;28;20045;-76
2022/09/13 11:00:43;;;;;;;3.50;0.50;;;19.20;99.90;;;;;;4985456;28;20065;-78
2022/09/13 11:03:32;;;;;;;4.57;0.63;;;19.20;99.90;;;;;;4987168;28;20486;-77
2022/09/13 11:06:27;;;;;;;1.80;0.30;;;19.30;99.90;;;;;;4988304;28;20401;-74
2022/09/13 11:09:20;;;;;;;3.83;0.43;;;19.30;99.90;;;;;;5008219;28;20448;-74
2022/09/13 11:12:04;;;;;;;3.30;0.30;;;19.40;99.90;;;;;;4988372;28;20544;-73
2022/09/13 11:14:48;;;;;;;6.38;0.50;;;19.50;99.90;;;;;;5008531;28;20498;-73
2022/09/13 11:17:50;;;;;;;4.07;1.02;;;19.60;99.90;;;;;;5002267;28;20122;-73
2022/09/13 11:20:36;;;;;;;4.28;0.60;;;19.70;99.90;;;;;;5007815;28;20548;-73
2022/09/13 11:23:14;;;;;;;2.78;0.50;;;19.80;99.90;;;;;;5008388;28;20458;-73
2022/09/13 11:25:58;;;;;;;9.13;1.30;;;19.70;99.90;;;;;;4992120;28;20547;-73
2022/09/13 11:28:55;;;;;;;5.63;1.17;;;19.70;99.90;;;;;;5003728;28;20152;-74
2022/09/13 11:31:43;;;;;;;3.15;0.30;;;19.80;99.90;;;;;;4890247;28;20054;-74
2022/09/13 11:34:17;;;;;;;2.92;0.30;;;19.80;99.90;;;;;;4989559;28;20050;-74
2022/09/13 11:37:18;;;;;;;3.03;0.65;;;19.80;99.90;;;;;;4988669;28;20619;-73
2022/09/13 11:40:14;;;;;;;7.90;0.65;;;19.80;99.90;;;;;;4956714;28;20563;-73
2022/09/13 11:43:01;;;;;;;6.20;0.60;;;20.00;99.90;;;;;;4990453;28;20498;-73
2022/09/13 11:45:27;;;;;;;3.15;0.50;;;20.10;99.90;;;;;;4986785;28;20053;-73
2022/09/13 11:48:41;;;;;;;4.93;0.60;;;20.20;99.90;;;;;;4994320;28;20177;-73
2022/09/13 11:51:32;;;;;;;4.25;0.55;;;20.40;99.90;;;;;;4988911;28;20168;-73
2022/09/13 11:54:16;;;;;;;5.20;0.47;;;20.40;99.90;;;;;;4993505;28;20503;-74
2022/09/13 11:56:48;;;;;;;4.78;0.63;;;20.50;99.90;;;;;;4989973;28;20050;-74
2022/09/13 11:59:36;;;;;;;4.72;0.57;;;20.60;99.90;;;;;;4991742;28;20497;-74
2022/09/13 12:02:30;;;;;;;17.05;8.07;;;20.80;99.90;;;;;;4992971;28;20042;-74
2022/09/13 12:05:04;;;;;;;5.32;1.02;;;20.90;99.90;;;;;;4975339;28;20390;-74
2022/09/13 12:07:48;;;;;;;4.00;0.80;;;20.90;99.90;;;;;;5009215;28;20519;-74
2022/09/13 12:10:24;;;;;;;6.15;1.13;;;20.90;99.90;;;;;;4994105;28;20151;-73
2022/09/13 12:12:52;;;;;;;2.45;0.70;;;20.80;99.90;;;;;;4977529;28;20094;-74
2022/09/13 12:15:33;;;;;;;5.07;0.98;;;20.90;99.90;;;;;;4993210;28;20084;-74
2022/09/13 12:18:08;;;;;;;8.32;1.00;;;20.90;99.90;;;;;;4994030;28;20104;-73
2022/09/13 12:20:45;;;;;;;5.45;0.47;;;20.90;99.90;;;;;;5004677;28;20064;-73
2022/09/13 12:23:27;;;;;;;4.63;0.77;;;20.90;99.90;;;;;;5004162;28;20045;-73
2022/09/13 12:26:02;;;;;;;5.35;0.57;;;20.90;99.90;;;;;;4990982;28;20048;-74
2022/09/13 12:28:41;;;;;;;6.38;0.82;;;21.00;99.90;;;;;;5003269;28;20048;-73
2022/09/13 12:31:11;;;;;;;7.72;3.55;;;21.00;99.90;;;;;;4992977;28;20050;-76
2022/09/13 12:33:41;;;;;;;6.55;1.23;;;21.00;99.90;;;;;;4988347;28;20128;-75
2022/09/13 12:36:45;;;;;;;8.98;1.00;;;21.00;99.90;;;;;;4992844;28;20088;-74
2022/09/13 12:39:37;;;;;;;4.00;0.73;;;21.00;99.90;;;;;;4991486;28;20104;-75
2022/09/13 12:42:37;;;;;;;5.50;0.90;;;21.00;99.90;;;;;;4988312;28;20049;-74
2022/09/13 12:45:09;;;;;;;5.97;1.15;;;21.00;99.90;;;;;;4987901;28;20140;-76
2022/09/13 12:47:53;;;;;;;6.03;0.77;;;20.90;99.90;;;;;;5005702;28;20050;-75
2022/09/13 12:50:19;;;;;;;;;;;20.80;99.90;;;;;;4990460;28;20046;-75
2022/09/13 12:53:07;;;;;;;6.80;0.95;;;21.00;99.90;;;;;;4989245;28;20280;-75
2022/09/13 12:55:55;;;;;;;5.82;1.10;;;20.70;99.90;;;;;;4991783;28;20057;-75
2022/09/13 12:58:33;;;;;;;4.90;1.00;;;20.60;99.90;;;;;;5006002;28;20048;-75
2022/09/13 13:01:33;;;;;;;6.63;0.90;;;20.60;99.90;;;;;;5008087;28;20116;-75
2022/09/13 13:04:22;;;;;;;8.63;0.98;;;20.60;99.90;;;;;;4987048;28;20498;-74
2022/09/13 13:06:50;;;;;;;7.45;0.95;;;20.60;99.90;;;;;;4994159;28;20405;-75
2022/09/13 13:09:27;;;;;;;9.95;0.95;;;20.50;99.90;;;;;;4990833;28;20119;-75
2022/09/13 13:11:54;;;;;;;6.70;0.70;;;20.60;99.90;;;;;;5007944;28;20563;-74
2022/09/13 13:14:38;;;;;;;4.95;0.70;;;20.50;99.90;;;;;;5008411;28;20391;-75
2022/09/13 13:17:41;;;;;;;5.70;0.90;;;20.50;99.90;;;;;;5007862;28;20042;-72
2022/09/13 13:20:37;;;;;;;8.02;1.15;;;20.50;99.90;;;;;;4976876;28;20070;-79
2022/09/13 13:23:37;;;;;;;6.45;1.27;;;20.50;99.90;;;;;;4992864;28;20049;-78